ADDS METAR Data INFO
IDs: Format: Raw Decoded Include TAF

Data at: 0234 UTC 26 Jul 2017

KLNC 260215Z AUTO 14005KT 10SM CLR 30/21 A3003 RMK AO2 T03000206
KLNC 260155Z AUTO 14007KT 10SM CLR 31/21 A3003 RMK AO2 T03050205
KLNC 260135Z AUTO 14006KT 10SM CLR 31/21 A3002 RMK AO2 T03100206
KLNC 260115Z AUTO 13007KT 10SM CLR 32/21 A3002 RMK AO2 T03180208
KLNC 260055Z AUTO 14009KT 10SM CLR 32/21 A3002 RMK AO2 T03230210
KLNC 260035Z AUTO 15007KT 10SM CLR 33/21 A3001 RMK AO2 T03320205
KLNC 260015Z AUTO 15009KT 10SM CLR 34/20 A3001 RMK AO2 T03370204
KLNC 252355Z AUTO 15009KT 10SM CLR 34/21 A3001 RMK AO2 T03420207 10357 20326
KLNC 252335Z AUTO 16008KT 10SM CLR 34/21 A3001 RMK AO2 T03360206
KLNC 252315Z AUTO 15007KT 10SM CLR 35/20 A3001 RMK AO2 T03460204
KLNC 252300Z AUTO 16008KT 10SM CLR 34/21 A3002 RMK AO2 T03390205
KLNC 252235Z AUTO 15009G16KT 10SM SCT060 35/21 A3002 RMK AO2 T03510211
KLNC 252215Z AUTO 16008KT 10SM CLR 35/21 A3002 RMK AO2 T03460208
KLNC 252155Z AUTO 17009G14KT 10SM CLR 35/21 A3003 RMK AO2 T03510211
KLNC 252135Z AUTO 13013G16KT 10SM SCT060 34/21 A3003 RMK AO2 T03440211
KLNC 252115Z AUTO 18011KT 10SM SCT060 35/21 A3004 RMK AO2 T03540210
KLNC 252055Z AUTO 19011KT 10SM SCT050 35/21 A3004 RMK AO2 T03470205
KLNC 252035Z AUTO 16008KT 10SM CLR 34/21 A3004 RMK AO2 T03410207
KLNC 252015Z AUTO 19010KT 10SM SCT049 SCT065 SCT080 35/22 A3005 RMK AO2 T03470215
KLNC 251955Z AUTO 16008G14KT 10SM SCT049 34/22 A3006 RMK AO2 T03430221
KLNC 251935Z AUTO 19004G14KT 10SM SCT047 SCT055 34/22 A3006 RMK AO2 T03400216
KLNC 251915Z AUTO 18007KT 10SM SCT045 34/22 A3007 RMK AO2 T03400220
KLNC 251855Z AUTO 16006KT 10SM SCT045 34/22 A3007 RMK AO2 T03360224
KLNC 251835Z AUTO 17009G14KT 10SM SCT039 SCT045 33/22 A3008 RMK AO2 T03340219
KLNC 251815Z AUTO 20007G10KT 160V220 10SM SCT038 SCT045 33/23 A3008 RMK AO2 T03280230
KLNC 251755Z AUTO 18007G16KT 10SM SCT035 33/23 A3008 RMK AO2 T03270228 10327 20231
KLNC 251735Z AUTO 20007G14KT 10SM SCT033 32/23 A3009 RMK AO2 T03200228
KLNC 251715Z AUTO 17006KT 10SM SCT031 32/23 A3009 RMK AO2 T03170231
KLNC 251655Z AUTO 19008KT 10SM SCT029 31/23 A3010 RMK AO2 T03120230
KLNC 251635Z AUTO 16008KT 10SM SCT027 31/23 A3009 RMK AO2 T03110232
KLNC 251615Z AUTO 16007KT 10SM SCT025 30/23 A3010 RMK AO2 T03040232
KLNC 251555Z AUTO 21008KT 160V220 7SM SCT023 30/23 A3010 RMK AO2 T02980231
KLNC 251535Z AUTO 18007KT 7SM SCT021 29/24 A3010 RMK AO2 T02920235
KLNC 251515Z AUTO 17011G15KT 7SM BKN017 28/23 A3010 RMK AO2 T02840233
KLNC 251455Z AUTO 20009KT 7SM SCT017 28/23 A3010 RMK AO2 T02770231
KLNC 251435Z AUTO 19008KT 7SM SCT015 27/23 A3010 RMK AO2 T02710231
KLNC 251415Z AUTO 18008KT 7SM SCT085 SCT110 27/23 A3010 RMK AO2 T02700231
KLNC 251355Z AUTO 19007KT 7SM BKN085 OVC110 27/23 A3010 RMK AO2 T02650232
KLNC 251335Z AUTO 18005KT 7SM BKN075 25/23 A3010 RMK AO2 T02520230
KLNC 251315Z AUTO 19005KT 7SM CLR 25/23 A3009 RMK AO2 T02470227
KLNC 251255Z AUTO 18003KT 7SM CLR 24/23 A3009 RMK AO2 T02410225
KLNC 251235Z AUTO 00000KT 7SM CLR 24/22 A3008 RMK AO2 T02360222
KLNC 251215Z AUTO 00000KT 7SM CLR 23/22 A3008 RMK AO2 T02320220
KLNC 251155Z AUTO 16003KT 7SM CLR 23/22 A3007 RMK AO2 T02310219 10244 20231
KLNC 251135Z AUTO 17003KT 7SM CLR 23/22 A3006 RMK AO2 T02330220
KLNC 251115Z AUTO 17003KT 7SM CLR 24/22 A3006 RMK AO2 T02350221
KLNC 251055Z AUTO 16003KT 7SM CLR 24/22 A3006 RMK AO2 T02360221
KLNC 251035Z AUTO 16003KT 7SM CLR 24/22 A3005 RMK AO2 T02370224
KLNC 251015Z AUTO 17003KT 7SM CLR 24/23 A3004 RMK AO2 T02370225
KLNC 250955Z AUTO 17004KT 7SM CLR 24/23 A3003 RMK AO2 T02350225
KLNC 250935Z AUTO 15003KT 7SM CLR 23/22 A3003 RMK AO2 T02320221
KLNC 250915Z AUTO 00000KT 7SM CLR 24/22 A3003 RMK AO2 T02350223
KLNC 250855Z AUTO 00000KT 7SM CLR 24/22 A3003 RMK AO2 T02350223
KLNC 250835Z AUTO 00000KT 7SM CLR 24/22 A3002 RMK AO2 T02370224
KLNC 250815Z AUTO 17003KT 10SM CLR 24/22 A3002 RMK AO2 T02380223
KLNC 250755Z AUTO 00000KT 10SM CLR 24/22 A3002 RMK AO2 T02370218
KLNC 250735Z AUTO 00000KT 10SM CLR 24/22 A3002 RMK AO2 T02400217
KLNC 250715Z AUTO 00000KT 10SM CLR 24/22 A3002 RMK AO2 T02400216
KLNC 250655Z AUTO 00000KT 10SM CLR 24/22 A3002 RMK AO2 T02410216
KLNC 250635Z AUTO 00000KT 10SM CLR 24/22 A3002 RMK AO2 T02400218
KLNC 250615Z AUTO 00000KT 10SM CLR 24/22 A3002 RMK AO2 T02400220
KLNC 250555Z AUTO 14003KT 10SM CLR 25/22 A3002 RMK AO2 T02450220 10310 20245 403280223
KLNC 250535Z AUTO 14004KT 10SM CLR 25/22 A3002 RMK AO2 T02450220
KLNC 250515Z AUTO 15003KT 10SM CLR 25/22 A3002 RMK AO2 T02460220
KLNC 250455Z AUTO 14003KT 10SM CLR 25/22 A3001 RMK AO2 T02500220
KLNC 250435Z AUTO 13003KT 10SM CLR 26/22 A3000 RMK AO2 T02550220
KLNC 250415Z AUTO 13004KT 10SM CLR 26/22 A3000 RMK AO2 T02570222
KLNC 250355Z AUTO 14004KT 10SM CLR 26/22 A2999 RMK AO2 T02610223
KLNC 250335Z AUTO 13005KT 10SM CLR 26/22 A2999 RMK AO2 T02630222
KLNC 250315Z AUTO 14003KT 10SM CLR 27/22 A2998 RMK AO2 T02660224
KLNC 250255Z AUTO 14005KT 10SM CLR 27/22 A2997 RMK AO2 T02700223
KLNC 250235Z AUTO 13004KT 10SM CLR 27/23 A2997 RMK AO2 T02710225
KLNC 250215Z AUTO 13004KT 10SM CLR 28/23 A2997 RMK AO2 T02800225
KLNC 250155Z AUTO 12003KT 10SM CLR 28/23 A2997 RMK AO2 T02830226
KLNC 250135Z AUTO 13006KT 10SM CLR 29/23 A2996 RMK AO2 T02890226
KLNC 250115Z AUTO 12007KT 10SM CLR 30/23 A2996 RMK AO2 T02950225
KLNC 250055Z AUTO 12009KT 10SM CLR 30/23 A2995 RMK AO2 T03000225
KLNC 250035Z AUTO 12007KT 10SM CLR 31/23 A2995 RMK AO2 T03050226
KLNC 250015Z AUTO 13007KT 10SM SCT039 31/23 A2995 RMK AO2 T03090227
KLNC 242355Z AUTO 11009KT 10SM SCT039 31/23 A2995 RMK AO2 T03100230 10328 20282
KLNC 242335Z AUTO 13010G14KT 090V160 10SM CLR 31/24 A2996 RMK AO2 T03140235
KLNC 242315Z AUTO 13009KT 10SM CLR 32/24 A2995 RMK AO2 T03160239
KLNC 242255Z AUTO 12009G14KT 10SM SCT037 SCT045 32/24 A2995 RMK AO2 T03180242
KLNC 242235Z AUTO 13010G14KT 10SM SCT033 SCT047 31/23 A2995 RMK AO2 T03140233
KLNC 242215Z AUTO 15004KT 10SM SCT031 SCT040 32/23 A2994 RMK AO2 T03210234
KLNC 242155Z AUTO 11006KT 10SM SCT040 31/24 A2995 RMK AO2 T03120237
KLNC 242135Z AUTO 11004KT 10SM SCT036 SCT041 31/23 A2994 RMK AO2 T03120231
KLNC 242115Z AUTO 11003KT 10SM SCT032 32/23 A2995 RMK AO2 T03160230
KLNC 242055Z AUTO 11004KT 10SM CLR 31/23 A2996 RMK AO2 T03130229
KLNC 242035Z AUTO 19004KT 10SM CLR 31/23 A2997 RMK AO2 T03060226
KLNC 242015Z AUTO 00000KT 10SM CLR 30/22 A2997 RMK AO2 T03020222
KLNC 241955Z AUTO 13004KT 10SM CLR 30/23 A2998 RMK AO2 LTG DSNT SE T02980225
KLNC 241935Z AUTO 14003KT 10SM SCT023 30/23 A2999 RMK AO2 LTG DSNT SE T02970229
KLNC 241915Z AUTO 13003KT 10SM SCT023 29/23 A2999 RMK AO2 LTG DSNT S T02940230
KLNC 241855Z AUTO 17003KT 10SM SCT023 29/22 A3000 RMK AO2 LTG DSNT SE T02900224
KLNC 241835Z AUTO 17003KT 10SM BKN021 29/22 A3001 RMK AO2 LTG DSNT SE T02870224
KLNC 241815Z AUTO 12006KT 10SM SCT019 28/23 A3001 RMK AO2 LTG DSNT SE T02820225
KLNC 241755Z AUTO 17006KT 10SM SCT017 28/23 A3002 RMK AO2 T02840229 10286 20225
KLNC 241735Z AUTO 14009KT 10SM SCT017 28/23 A3002 RMK AO2 T02830226
KLNC 241715Z AUTO 15005KT 10SM SCT015 28/23 A3002 RMK AO2 T02780227
KLNC 241655Z AUTO 12003KT 10SM SCT075 SCT100 SCT120 27/22 A3003 RMK AO2 T02670224
KLNC 241635Z AUTO 09003KT 10SM SCT075 BKN090 BKN120 26/22 A3002 RMK AO2 T02600222
KLNC 241615Z AUTO 00000KT 10SM BKN075 BKN090 25/22 A3002 RMK AO2 T02500218
KLNC 241555Z AUTO 00000KT 10SM OVC075 25/22 A3002 RMK AO2 T02450218
KLNC 241535Z AUTO 00000KT 10SM OVC075 25/22 A3002 RMK AO2 T02460216
KLNC 241515Z AUTO 00000KT 10SM OVC085 24/22 A3002 RMK AO2 T02430216
KLNC 241455Z AUTO 00000KT 10SM OVC085 24/22 A3001 RMK AO2 T02410215
KLNC 241435Z AUTO 00000KT 10SM OVC085 24/22 A3001 RMK AO2 LTG DSNT SE T02380215